Flight Track Log - Related Links

Times and Time Zones

All times are in EDT time to prevent confusion due to time zone crossing. See the UAL4457 flight status page for this flight to view local times or setup timezone preferences in your user account.


Time Position Orientation Groundspeed Altitude Reporting Facility
EDT Latitude Longitude Course Direction KTS MPH feet Rate Location/Type
Thu 03:08:30 PM 29.9769 -95.3031 35° Northeast 153 176 700  Level Houston Center
Thu 03:09:45 PM 30.0297 -95.2606 35° Northeast 232 267 3,200 2,338 Climbing Houston Center
Thu 03:10:46 PM 30.0964 -95.2331 20° North 265 305 6,000 2,512 Climbing Houston Center
Thu 03:11:00 PM 30.2774 -95.0947 32° Northeast  Level FlightAware Approximate
Thu 03:11:11 PM 30.1211 -95.2208 23° Northeast 258 297 6,800  Level Houston Center
Thu 03:12:00 PM 30.3777 -95.0178 35° Northeast  Level FlightAware Approximate
Thu 03:12:14 PM 30.1897 -95.1758 30° Northeast 283 326 9,600  Level Houston Center
Thu 03:13:00 PM 30.4753 -94.9431 35° Northeast  Level FlightAware Approximate
Thu 03:13:16 PM 30.2581 -95.1208 35° Northeast 296 341 11,200  Level Houston Center
Thu 03:14:18 PM 30.3606 -95.0414 34° Northeast 362 417 13,200 2,081 Climbing Houston Center
Thu 03:15:20 PM 30.4447 -94.9761 34° Northeast 366 421 15,500 1,403 Climbing Houston Center
Thu 03:16:22 PM 30.5308 -94.9089 34° Northeast 372 428 16,100 290 Climbing Houston Center
Thu 03:17:24 PM 30.6217 -94.8394 33° Northeast 386 444 16,100  Level Houston Center
Thu 03:18:26 PM 30.7300 -94.7567 33° Northeast 388 447 16,100  Level Houston Center
Thu 03:19:28 PM 30.8189 -94.6869 34° Northeast 387 445 16,100 384 Level Houston Center
Thu 03:20:31 PM 30.9081 -94.6178 34° Northeast 386 444 16,900 912 Climbing Houston Center
Thu 03:21:33 PM 30.9992 -94.5472 34° Northeast 392 451 18,000 1,258 Climbing Houston Center
Thu 03:22:35 PM 31.0906 -94.4758 34° Northeast 395 455 19,500 1,630 Climbing Houston Center
Thu 03:22:54 PM 31.1244 -94.4506 33° Northeast 395 455 20,200 1,899 Climbing Fort Worth Center
Thu 03:23:54 PM 31.2206 -94.3747 34° Northeast 395 455 22,000 1,884 Climbing Fort Worth Center
Thu 03:24:55 PM 31.3108 -94.3058 33° Northeast 395 455 24,000 1,950 Climbing Fort Worth Center
Thu 03:25:54 PM 31.4008 -94.2347 34° Northeast 395 455 25,900 1,815 Climbing Fort Worth Center
Thu 03:26:54 PM 31.4931 -94.1633 33° Northeast 395 455 27,600 1,636 Climbing Fort Worth Center
Thu 03:27:55 PM 31.5831 -94.0919 34° Northeast 395 455 29,200 1,650 Climbing Fort Worth Center
Thu 03:28:54 PM 31.6750 -94.0228 33° Northeast 395 455 30,900 1,613 Climbing Fort Worth Center
Thu 03:29:54 PM 31.7711 -93.9461 34° Northeast 387 445 32,400 1,041 Climbing Fort Worth Center
Thu 03:30:55 PM 31.8653 -93.8739 33° Northeast 392 451 33,000 300 Climbing Fort Worth Center
Thu 03:31:54 PM 31.9550 -93.7994 35° Northeast 416 479 33,000 605 Level Fort Worth Center
Thu 03:32:54 PM 32.0692 -93.7117 33° Northeast 435 501 34,200 1,000 Climbing Fort Worth Center
Thu 03:33:54 PM 32.1733 -93.6289 34° Northeast 446 513 35,000 400 Climbing Fort Worth Center
Thu 03:34:54 PM 32.2789 -93.5311 38° Northeast 456 525 35,000  Level Fort Worth Center
Thu 03:35:54 PM 32.3889 -93.4478 33° Northeast 468 539 35,000  Level Fort Worth Center
Thu 03:36:54 PM 32.4989 -93.3592 34° Northeast 468 539 35,000  Level Fort Worth Center
Thu 03:37:54 PM 32.6108 -93.2703 34° Northeast 474 545 35,000  Level Fort Worth Center
Thu 03:38:54 PM 32.7206 -93.1814 34° Northeast 474 545 35,000  Level Fort Worth Center
Thu 03:39:55 PM 32.8303 -93.0919 34° Northeast 474 545 35,000  Level Fort Worth Center
Thu 03:40:54 PM 32.9397 -93.0025 34° Northeast 474 545 35,000  Level Fort Worth Center
Thu 03:41:54 PM 33.0514 -92.9128 34° Northeast 479 551 35,000  Level Fort Worth Center
Thu 03:42:55 PM 33.1567 -92.8256 35° Northeast 472 543 35,000  Level Fort Worth Center
Thu 03:46:21 PM 33.4711 -92.4217 47° Northeast 492 566 35,000  Level Memphis Center
Thu 03:47:22 PM 33.5567 -92.2942 51° Northeast 492 566 35,000  Level Memphis Center
Thu 03:48:22 PM 33.6400 -92.1661 52° Northeast 492 566 35,000  Level Memphis Center
Thu 03:49:22 PM 33.7275 -92.0331 52° Northeast 492 566 35,000  Level Memphis Center
Thu 03:50:22 PM 33.8125 -91.9047 51° Northeast 492 566 35,000  Level Memphis Center
Thu 03:51:21 PM 33.8956 -91.7736 53° Northeast 492 566 35,000  Level Memphis Center
Thu 03:52:22 PM 33.9869 -91.6247 53° Northeast 499 574 35,000  Level Memphis Center
Thu 03:53:22 PM 34.0717 -91.4881 53° Northeast 499 574 35,000  Level Memphis Center
Thu 03:54:22 PM 34.1561 -91.3586 52° Northeast 494 568 35,000  Level Memphis Center
Thu 03:55:22 PM 34.2406 -91.2264 52° Northeast 489 563 35,000  Level Memphis Center
Thu 03:56:21 PM 34.3250 -91.0939 52° Northeast 489 563 35,000  Level Memphis Center
Thu 03:57:21 PM 34.4069 -90.9639 53° Northeast 484 557 35,000  Level Memphis Center
Thu 03:58:22 PM 34.4889 -90.8358 52° Northeast 484 557 35,000  Level Memphis Center
Thu 03:59:21 PM 34.5708 -90.7003 54° Northeast 484 557 35,000  Level Memphis Center
Thu 04:00:21 PM 34.6442 -90.5819 53° Northeast 484 557 35,000  Level Memphis Center
Thu 04:01:21 PM 34.7256 -90.4481 53° Northeast 494 568 35,000  Level Memphis Center
Thu 04:02:22 PM 34.8092 -90.3142 53° Northeast 494 568 35,000  Level Memphis Center
Thu 04:03:22 PM 34.8944 -90.1800 52° Northeast 494 568 35,000  Level Memphis Center
Thu 04:04:22 PM 34.9881 -90.0378 51° Northeast 494 568 35,000  Level Memphis Center
Thu 04:05:22 PM 35.0606 -89.8803 61° Northeast 508 585 35,000  Level Memphis Center
Thu 04:06:21 PM 35.1183 -89.7122 67° East 519 597 35,000  Level Memphis Center
Thu 04:07:22 PM 35.1717 -89.5492 68° East 526 605 35,000  Level Memphis Center
Thu 04:08:21 PM 35.2289 -89.3861 67° East 516 594 35,000  Level Memphis Center
Thu 04:09:22 PM 35.2817 -89.2378 66° East 516 594 35,000  Level Memphis Center
Thu 04:10:21 PM 35.3386 -89.0742 67° East 521 600 35,000  Level Memphis Center
Thu 04:11:22 PM 35.3931 -88.9078 68° East 521 600 35,000  Level Memphis Center
Thu 04:12:22 PM 35.4494 -88.7489 66° East 509 586 35,000  Level Memphis Center
Thu 04:13:21 PM 35.5058 -88.5869 67° East 509 586 35,000  Level Memphis Center
Thu 04:14:21 PM 35.5617 -88.4250 67° East 509 586 35,000  Level Memphis Center
Thu 04:15:22 PM 35.6194 -88.2603 67° East 515 593 35,000  Level Memphis Center
Thu 04:16:21 PM 35.6769 -88.0903 67° East 501 577 35,000  Level Memphis Center
Thu 04:17:21 PM 35.7303 -87.9275 68° East 501 577 35,000  Level Memphis Center
Thu 04:18:21 PM 35.7794 -87.7828 67° East 501 577 35,000  Level Memphis Center
Thu 04:19:21 PM 35.8322 -87.6172 68° East 501 577 35,000  Level Memphis Center
Thu 04:20:21 PM 35.8847 -87.4567 68° East 501 577 35,000 -150 Level Memphis Center
Thu 04:21:21 PM 35.9392 -87.2908 68° East 501 577 34,700 -650 Descending Memphis Center
Thu 04:22:21 PM 35.9914 -87.1297 68° East 506 582 33,700 -843 Descending Memphis Center
Thu 04:23:22 PM 36.0453 -86.9633 68° East 506 582 33,000 -350 Descending Memphis Center
Thu 04:24:21 PM 36.0992 -86.7967 68° East 511 588 33,000  Level Memphis Center
Thu 04:25:21 PM 36.1675 -86.6369 62° Northeast 518 596 33,000  Level Memphis Center
Thu 04:26:21 PM 36.2572 -86.5092 49° Northeast 500 575 33,000  Level Memphis Center
Thu 04:27:21 PM 36.3472 -86.3839 48° Northeast 494 568 33,000 -248 Level Memphis Center
Thu 04:28:22 PM 36.4367 -86.2556 49° Northeast 489 563 32,500 -843 Descending Memphis Center
Thu 04:29:22 PM 36.5261 -86.1272 49° Northeast 484 557 31,300 -1,200 Descending Memphis Center
Thu 04:30:22 PM 36.6178 -85.9983 48° Northeast 484 557 30,100 -1,179 Descending Memphis Center
Thu 04:32:10 PM 36.7814 -85.7553 50° Northeast 490 564 28,000 -1,165 Descending Indianapolis Center
Thu 04:33:12 PM 36.8714 -85.6247 49° Northeast 491 565 26,800 -1,403 Descending Indianapolis Center
Thu 04:34:14 PM 36.9572 -85.4972 50° Northeast 478 550 25,100 -1,984 Descending Indianapolis Center
Thu 04:35:16 PM 37.0381 -85.3769 50° Northeast 458 527 22,700 -2,565 Descending Indianapolis Center
Thu 04:36:18 PM 37.1336 -85.2372 49° Northeast 447 514 19,800 -2,371 Descending Indianapolis Center
Thu 04:37:20 PM 37.2100 -85.1228 50° Northeast 429 494 17,800 -1,776 Descending Indianapolis Center
Thu 04:38:23 PM 37.2839 -85.0119 50° Northeast 415 478 16,100 -1,824 Descending Indianapolis Center
Thu 04:39:25 PM 37.3567 -84.9044 50° Northeast 402 463 14,000 -2,032 Descending Indianapolis Center
Thu 04:40:27 PM 37.4250 -84.8000 50° Northeast 388 447 11,900 -1,645 Descending Indianapolis Center
Thu 04:41:29 PM 37.5100 -84.7103 40° Northeast 349 402 10,600 -871 Descending Indianapolis Center
Thu 04:42:31 PM 37.6008 -84.6817 14° North 334 384 10,100 -290 Descending Indianapolis Center
Thu 04:43:33 PM 37.6894 -84.6519 15° North 330 380 10,000  Descending Indianapolis Center
Thu 04:44:35 PM 37.7767 -84.6222 15° North 325 374 10,100 -435 Climbing Indianapolis Center
Thu 04:45:37 PM 37.8547 -84.5967 14° North 294 338 9,100 -1,258 Descending Indianapolis Center
Thu 04:46:39 PM 37.9242 -84.5739 15° North 265 305 7,500 -1,790 Descending Indianapolis Center
Thu 04:47:41 PM 38.0014 -84.5278 25° Northeast 272 313 5,400 -2,032 Descending Indianapolis Center

Login

Don't have an account? Register now (free) for customized features, flight alerts, and more!